Time,TemperatureF,DewpointF,PressureIn,WindDirection,WindDirectionDegrees,WindSpeedMPH,WindSpeedGustMPH,Humidity,HourlyPrecipIn,Conditions,Clouds,dailyrainin,SoftwareType,DateUTC
2013-02-06 00:00:00,18.7,10.5,29.95,NNE,19,0.0,0.0,70,0.00,,,0.00,Wunderground v.1.15,2013-02-06 05:00:00,
2013-02-06 00:05:00,18.8,10.3,29.95,NNE,19,0.0,0.0,69,0.00,,,0.00,Wunderground v.1.15,2013-02-06 05:05:00,
2013-02-06 00:10:00,19.0,10.5,29.95,NNE,19,0.0,0.0,69,0.00,,,0.00,Wunderground v.1.15,2013-02-06 05:10:00,
2013-02-06 00:15:00,19.0,10.5,29.95,NNE,19,0.0,0.0,69,0.00,,,0.00,Wunderground v.1.15,2013-02-06 05:15:00,
2013-02-06 00:25:00,18.9,10.7,29.95,NNE,19,0.0,0.0,70,0.00,,,0.00,Wunderground v.1.15,2013-02-06 05:25:00,
2013-02-06 00:30:00,18.9,10.7,29.95,NNE,19,0.0,0.0,70,0.00,,,0.00,Wunderground v.1.15,2013-02-06 05:30:00,
2013-02-06 00:35:00,18.9,10.7,29.95,NNE,19,0.0,0.0,70,0.00,,,0.00,Wunderground v.1.15,2013-02-06 05:35:00,
2013-02-06 00:40:00,18.9,11.0,29.96,NNE,19,0.0,0.0,71,0.00,,,0.00,Wunderground v.1.15,2013-02-06 05:40:00,
2013-02-06 00:45:00,19.1,11.2,29.96,NNE,19,0.0,0.0,71,0.00,,,0.00,Wunderground v.1.15,2013-02-06 05:45:00,
2013-02-06 00:55:00,19.5,11.9,29.95,NNE,19,0.0,0.0,72,0.00,,,0.00,Wunderground v.1.15,2013-02-06 05:55:00,
2013-02-06 01:00:00,19.7,12.1,29.95,NNE,19,0.0,0.0,72,0.00,,,0.00,Wunderground v.1.15,2013-02-06 06:00:00,
2013-02-06 01:05:00,19.8,12.2,29.95,NNE,19,0.0,0.0,72,0.00,,,0.00,Wunderground v.1.15,2013-02-06 06:05:00,
2013-02-06 01:10:00,19.9,12.3,29.95,NNE,17,0.0,0.0,72,0.00,,,0.00,Wunderground v.1.15,2013-02-06 06:10:00,
2013-02-06 01:15:00,20.0,12.4,29.95,NNE,17,0.0,0.0,72,0.00,,,0.00,Wunderground v.1.15,2013-02-06 06:15:00,
2013-02-06 01:20:00,20.1,12.8,29.95,NNE,17,0.0,0.0,73,0.00,,,0.00,Wunderground v.1.15,2013-02-06 06:20:00,
2013-02-06 01:25:00,20.2,12.9,29.95,NNE,18,0.0,0.0,73,0.00,,,0.00,Wunderground v.1.15,2013-02-06 06:25:00,
2013-02-06 01:30:00,20.3,13.0,29.95,NNE,19,0.0,0.0,73,0.00,,,0.00,Wunderground v.1.15,2013-02-06 06:30:00,
2013-02-06 01:35:00,20.4,13.1,29.95,NNE,19,0.0,0.0,73,0.00,,,0.00,Wunderground v.1.15,2013-02-06 06:35:00,
2013-02-06 01:40:00,20.5,13.2,29.94,NNE,18,0.0,0.0,73,0.00,,,0.00,Wunderground v.1.15,2013-02-06 06:40:00,
2013-02-06 01:45:00,20.6,13.3,29.94,NNE,19,0.0,0.0,73,0.00,,,0.00,Wunderground v.1.15,2013-02-06 06:45:00,
2013-02-06 01:50:00,20.6,13.6,29.94,NNE,19,0.0,0.0,74,0.00,,,0.00,Wunderground v.1.15,2013-02-06 06:50:00,
2013-02-06 02:00:00,20.7,13.7,29.94,NNE,18,0.0,0.0,74,0.00,,,0.00,Wunderground v.1.15,2013-02-06 07:00:00,
2013-02-06 02:05:00,20.7,13.7,29.94,NNE,17,0.0,0.0,74,0.00,,,0.00,Wunderground v.1.15,2013-02-06 07:05:00,
2013-02-06 02:10:00,20.6,13.6,29.94,NNE,18,0.0,0.0,74,0.00,,,0.00,Wunderground v.1.15,2013-02-06 07:10:00,
2013-02-06 02:15:00,20.6,13.9,29.94,NNE,17,0.0,0.0,75,0.00,,,0.00,Wunderground v.1.15,2013-02-06 07:15:00,
2013-02-06 02:20:00,20.6,14.2,29.94,NNE,18,0.0,0.0,76,0.00,,,0.00,Wunderground v.1.15,2013-02-06 07:20:00,
2013-02-06 02:30:00,20.7,14.6,29.94,NNE,18,0.0,0.0,77,0.00,,,0.00,Wunderground v.1.15,2013-02-06 07:30:00,
2013-02-06 02:35:00,20.7,14.6,29.93,NNE,18,0.0,0.0,77,0.00,,,0.00,Wunderground v.1.15,2013-02-06 07:35:00,
2013-02-06 02:40:00,20.8,14.7,29.93,NNE,18,0.0,0.0,77,0.00,,,0.00,Wunderground v.1.15,2013-02-06 07:40:00,
2013-02-06 02:45:00,21.0,14.9,29.93,NNE,15,0.0,0.0,77,0.00,,,0.00,Wunderground v.1.15,2013-02-06 07:45:00,
2013-02-06 02:50:00,21.0,14.9,29.93,NNE,15,0.0,0.0,77,0.00,,,0.00,Wunderground v.1.15,2013-02-06 07:50:00,
2013-02-06 02:55:00,21.1,15.0,29.93,NNE,15,0.0,0.0,77,0.00,,,0.00,Wunderground v.1.15,2013-02-06 07:55:00,
2013-02-06 03:05:00,21.3,15.5,29.93,NNE,15,0.0,0.0,78,0.00,,,0.00,Wunderground v.1.15,2013-02-06 08:05:00,
2013-02-06 03:10:00,21.4,15.6,29.93,NNE,16,0.0,0.0,78,0.00,,,0.00,Wunderground v.1.15,2013-02-06 08:10:00,
2013-02-06 03:15:00,21.4,15.6,29.92,NNE,15,0.0,0.0,78,0.00,,,0.00,Wunderground v.1.15,2013-02-06 08:15:00,
2013-02-06 03:20:00,21.4,15.9,29.92,NNE,15,0.0,0.0,79,0.00,,,0.00,Wunderground v.1.15,2013-02-06 08:20:00,
2013-02-06 03:30:00,21.6,16.1,29.92,NNE,16,0.0,0.0,79,0.00,,,0.00,Wunderground v.1.15,2013-02-06 08:30:00,
2013-02-06 03:35:00,21.6,16.1,29.92,SE,144,0.0,0.0,79,0.00,,,0.00,Wunderground v.1.15,2013-02-06 08:35:00,
2013-02-06 03:40:00,21.9,16.7,29.92,SE,143,0.0,0.0,80,0.00,,,0.00,Wunderground v.1.15,2013-02-06 08:40:00,
2013-02-06 03:45:00,22.1,16.9,29.92,SE,132,0.0,0.0,80,0.00,,,0.00,Wunderground v.1.15,2013-02-06 08:45:00,
2013-02-06 03:50:00,22.2,17.0,29.92,SE,132,0.0,0.0,80,0.00,,,0.00,Wunderground v.1.15,2013-02-06 08:50:00,
2013-02-06 03:55:00,22.3,17.1,29.92,SE,133,0.0,0.0,80,0.00,,,0.00,Wunderground v.1.15,2013-02-06 08:55:00,
2013-02-06 04:00:00,22.4,17.2,29.93,SE,132,0.0,0.0,80,0.00,,,0.00,Wunderground v.1.15,2013-02-06 09:00:00,
2013-02-06 04:10:00,22.5,17.3,29.92,SE,133,0.0,1.0,80,0.00,,,0.00,Wunderground v.1.15,2013-02-06 09:10:00,
2013-02-06 04:15:00,22.5,17.3,29.92,SE,132,0.0,1.0,80,0.00,,,0.00,Wunderground v.1.15,2013-02-06 09:15:00,
2013-02-06 04:20:00,22.5,17.3,29.93,SE,133,0.0,1.0,80,0.00,,,0.00,Wunderground v.1.15,2013-02-06 09:20:00,
2013-02-06 04:30:00,22.5,17.5,29.93,SE,133,0.0,0.0,81,0.00,,,0.00,Wunderground v.1.15,2013-02-06 09:30:00,
2013-02-06 04:35:00,22.5,17.3,29.93,SE,132,0.0,0.0,80,0.00,,,0.00,Wunderground v.1.15,2013-02-06 09:35:00,
2013-02-06 04:40:00,22.5,17.5,29.93,SE,133,0.0,0.0,81,0.00,,,0.00,Wunderground v.1.15,2013-02-06 09:40:00,
2013-02-06 04:45:00,22.5,17.5,29.93,SE,133,0.0,0.0,81,0.00,,,0.00,Wunderground v.1.15,2013-02-06 09:45:00,
2013-02-06 04:50:00,22.5,17.5,29.93,SE,133,0.0,0.0,81,0.00,,,0.00,Wunderground v.1.15,2013-02-06 09:50:00,
2013-02-06 04:55:00,22.6,17.6,29.93,SE,132,0.0,0.0,81,0.00,,,0.00,Wunderground v.1.15,2013-02-06 09:55:00,
2013-02-06 05:05:00,22.6,17.9,29.93,SE,132,0.0,1.0,82,0.00,,,0.00,Wunderground v.1.15,2013-02-06 10:05:00,
2013-02-06 05:10:00,22.7,17.7,29.93,SE,133,0.0,1.0,81,0.00,,,0.00,Wunderground v.1.15,2013-02-06 10:10:00,
2013-02-06 05:20:00,22.7,17.7,29.93,NE,47,0.0,1.0,81,0.00,,,0.00,Wunderground v.1.15,2013-02-06 10:20:00,
2013-02-06 05:25:00,22.6,17.6,29.93,NE,47,0.0,1.0,81,0.00,,,0.00,Wunderground v.1.15,2013-02-06 10:25:00,
2013-02-06 05:30:00,22.5,17.5,29.92,NE,47,0.0,0.0,81,0.00,,,0.00,Wunderground v.1.15,2013-02-06 10:30:00,
2013-02-06 05:35:00,22.4,17.5,29.92,NE,47,0.0,0.0,81,0.00,,,0.00,Wunderground v.1.15,2013-02-06 10:35:00,
2013-02-06 05:40:00,22.3,17.4,29.92,NE,47,0.0,0.0,81,0.00,,,0.00,Wunderground v.1.15,2013-02-06 10:40:00,
2013-02-06 05:50:00,22.1,17.2,29.93,NE,47,0.0,0.0,81,0.00,,,0.00,Wunderground v.1.15,2013-02-06 10:50:00,
2013-02-06 05:55:00,22.0,17.3,29.92,NE,47,0.0,0.0,82,0.00,,,0.00,Wunderground v.1.15,2013-02-06 10:55:00,
2013-02-06 06:00:00,21.9,17.2,29.93,NE,47,0.0,0.0,82,0.00,,,0.00,Wunderground v.1.15,2013-02-06 11:00:00,
2013-02-06 06:05:00,21.9,17.2,29.93,NE,47,0.0,0.0,82,0.00,,,0.00,Wunderground v.1.15,2013-02-06 11:05:00,
2013-02-06 06:10:00,22.0,17.3,29.93,NE,47,0.0,0.0,82,0.00,,,0.00,Wunderground v.1.15,2013-02-06 11:10:00,
2013-02-06 06:15:00,22.0,17.3,29.93,NE,47,0.0,0.0,82,0.00,,,0.00,Wunderground v.1.15,2013-02-06 11:15:00,
2013-02-06 06:25:00,22.0,17.6,29.93,NE,47,0.0,0.0,83,0.00,,,0.00,Wunderground v.1.15,2013-02-06 11:25:00,
2013-02-06 06:30:00,22.1,17.7,29.93,NE,46,0.0,0.0,83,0.00,,,0.00,Wunderground v.1.15,2013-02-06 11:30:00,
2013-02-06 06:35:00,22.1,17.7,29.93,NE,46,0.0,0.0,83,0.00,,,0.00,Wunderground v.1.15,2013-02-06 11:35:00,
2013-02-06 06:40:00,22.1,17.7,29.94,NE,46,0.0,0.0,83,0.00,,,0.00,Wunderground v.1.15,2013-02-06 11:40:00,
2013-02-06 06:45:00,22.2,17.8,29.94,NE,45,0.0,0.0,83,0.00,,,0.00,Wunderground v.1.15,2013-02-06 11:45:00,
2013-02-06 06:55:00,22.4,18.0,29.95,North,352,0.0,0.0,83,0.00,,,0.00,Wunderground v.1.15,2013-02-06 11:55:00,
2013-02-06 07:00:00,22.5,18.4,29.95,North,352,0.0,0.0,84,0.00,,,0.00,Wunderground v.1.15,2013-02-06 12:00:00,
2013-02-06 07:05:00,22.7,18.6,29.95,North,353,0.0,0.0,84,0.00,,,0.00,Wunderground v.1.15,2013-02-06 12:05:00,
2013-02-06 07:10:00,22.8,18.7,29.95,North,352,0.0,0.0,84,0.00,,,0.00,Wunderground v.1.15,2013-02-06 12:10:00,
2013-02-06 07:15:00,22.9,18.8,29.95,North,352,0.0,0.0,84,0.00,,,0.00,Wunderground v.1.15,2013-02-06 12:15:00,
2013-02-06 07:20:00,23.0,18.9,29.95,North,352,0.0,0.0,84,0.00,,,0.00,Wunderground v.1.15,2013-02-06 12:20:00,
2013-02-06 07:25:00,23.0,18.9,29.95,North,352,0.0,0.0,84,0.00,,,0.00,Wunderground v.1.15,2013-02-06 12:25:00,
2013-02-06 07:30:00,23.0,18.9,29.95,North,352,0.0,0.0,84,0.00,,,0.00,Wunderground v.1.15,2013-02-06 12:30:00,
2013-02-06 07:35:00,23.1,19.0,29.95,North,352,0.0,0.0,84,0.00,,,0.00,Wunderground v.1.15,2013-02-06 12:35:00,
2013-02-06 07:40:00,23.2,19.1,29.95,North,352,0.0,0.0,84,0.00,,,0.00,Wunderground v.1.15,2013-02-06 12:40:00,
2013-02-06 07:45:00,23.3,19.2,29.95,West,271,0.0,0.0,84,0.00,,,0.00,Wunderground v.1.15,2013-02-06 12:45:00,
2013-02-06 07:50:00,23.4,19.3,29.95,West,272,0.0,0.0,84,0.00,,,0.00,Wunderground v.1.15,2013-02-06 12:50:00,
2013-02-06 08:00:00,23.5,19.1,29.95,West,278,0.0,0.0,83,0.00,,,0.00,Wunderground v.1.15,2013-02-06 13:00:00,
2013-02-06 08:05:00,23.5,19.1,29.95,WNW,293,0.0,0.0,83,0.00,,,0.00,Wunderground v.1.15,2013-02-06 13:05:00,
2013-02-06 08:10:00,23.5,19.1,29.95,WNW,298,0.0,0.0,83,0.00,,,0.00,Wunderground v.1.15,2013-02-06 13:10:00,
2013-02-06 08:15:00,23.7,19.3,29.95,WNW,302,0.0,0.0,83,0.00,,,0.00,Wunderground v.1.15,2013-02-06 13:15:00,
2013-02-06 08:20:00,23.9,19.5,29.95,NW,323,0.0,0.0,83,0.00,,,0.00,Wunderground v.1.15,2013-02-06 13:20:00,
2013-02-06 08:25:00,23.9,19.2,29.96,NNW,328,0.0,0.0,82,0.00,,,0.00,Wunderground v.1.15,2013-02-06 13:25:00,
2013-02-06 08:35:00,24.0,19.0,29.96,WSW,243,0.0,0.0,81,0.00,,,0.00,Wunderground v.1.15,2013-02-06 13:35:00,
2013-02-06 08:40:00,23.9,18.9,29.96,NW,319,0.0,0.0,81,0.00,,,0.00,Wunderground v.1.15,2013-02-06 13:40:00,
2013-02-06 08:45:00,23.8,18.8,29.96,North,352,0.0,0.0,81,0.00,,,0.00,Wunderground v.1.15,2013-02-06 13:45:00,
2013-02-06 08:50:00,23.8,18.8,29.96,WSW,243,0.0,0.0,81,0.00,,,0.00,Wunderground v.1.15,2013-02-06 13:50:00,
2013-02-06 08:55:00,23.8,18.8,29.96,North,11,0.0,0.0,81,0.00,,,0.00,Wunderground v.1.15,2013-02-06 13:55:00,
2013-02-06 09:05:00,24.1,19.1,29.96,NNW,348,0.0,0.0,81,0.00,,,0.00,Wunderground v.1.15,2013-02-06 14:05:00,
2013-02-06 09:10:00,24.2,18.9,29.96,WNW,289,0.0,0.0,80,0.00,,,0.00,Wunderground v.1.15,2013-02-06 14:10:00,
2013-02-06 09:15:00,24.3,19.0,29.95,NW,316,0.0,0.0,80,0.00,,,0.00,Wunderground v.1.15,2013-02-06 14:15:00,
2013-02-06 09:20:00,24.5,19.2,29.95,NW,319,0.0,0.0,80,0.00,,,0.00,Wunderground v.1.15,2013-02-06 14:20:00,
2013-02-06 09:25:00,24.7,19.1,29.96,NNE,30,0.0,0.0,79,0.00,,,0.00,Wunderground v.1.15,2013-02-06 14:25:00,
2013-02-06 09:30:00,24.9,19.6,29.96,NNE,30,0.0,0.0,80,0.00,,,0.00,Wunderground v.1.15,2013-02-06 14:30:00,
2013-02-06 09:40:00,25.5,19.9,29.95,NNE,18,0.0,0.0,79,0.00,,,0.00,Wunderground v.1.15,2013-02-06 14:40:00,
2013-02-06 09:45:00,25.7,19.8,29.95,SE,124,0.0,0.0,78,0.00,,,0.00,Wunderground v.1.15,2013-02-06 14:45:00,
2013-02-06 09:50:00,25.6,19.7,29.96,WSW,250,0.0,0.0,78,0.00,,,0.00,Wunderground v.1.15,2013-02-06 14:50:00,
2013-02-06 09:55:00,25.8,19.9,29.95,NW,307,0.0,0.0,78,0.00,,,0.00,Wunderground v.1.15,2013-02-06 14:55:00,
2013-02-06 10:00:00,25.9,19.7,29.96,ESE,122,0.0,0.0,77,0.00,,,0.00,Wunderground v.1.15,2013-02-06 15:00:00,
2013-02-06 10:10:00,26.1,19.6,29.95,WSW,246,0.0,2.0,76,0.00,,,0.00,Wunderground v.1.15,2013-02-06 15:10:00,
2013-02-06 10:15:00,26.2,20.0,29.95,SSE,148,0.0,2.0,77,0.00,,,0.00,Wunderground v.1.15,2013-02-06 15:15:00,
2013-02-06 10:20:00,26.7,20.5,29.94,SW,217,0.0,2.0,77,0.00,,,0.00,Wunderground v.1.15,2013-02-06 15:20:00,
2013-02-06 10:25:00,27.5,21.5,29.94,SW,215,0.0,2.0,78,0.00,,,0.00,Wunderground v.1.15,2013-02-06 15:25:00,
2013-02-06 10:30:00,28.1,21.8,29.94,SW,233,0.0,0.0,77,0.00,,,0.00,Wunderground v.1.15,2013-02-06 15:30:00,
2013-02-06 10:35:00,28.8,22.5,29.94,SW,229,0.0,0.0,77,0.00,,,0.00,Wunderground v.1.15,2013-02-06 15:35:00,
2013-02-06 10:40:00,29.2,22.6,29.94,South,177,0.0,0.0,76,0.00,,,0.00,Wunderground v.1.15,2013-02-06 15:40:00,
2013-02-06 10:45:00,29.7,23.1,29.94,SW,229,0.0,0.0,76,0.00,,,0.00,Wunderground v.1.15,2013-02-06 15:45:00,
2013-02-06 10:50:00,30.2,23.2,29.94,WSW,252,0.0,0.0,75,0.00,,,0.00,Wunderground v.1.15,2013-02-06 15:50:00,
2013-02-06 10:55:00,30.6,23.6,29.94,SW,221,0.0,0.0,75,0.00,,,0.00,Wunderground v.1.15,2013-02-06 15:55:00,
2013-02-06 11:00:00,30.7,23.4,29.94,WNW,287,0.0,0.0,74,0.00,,,0.00,Wunderground v.1.15,2013-02-06 16:00:00,
2013-02-06 11:05:00,31.2,24.2,29.93,South,187,0.0,1.0,75,0.00,,,0.00,Wunderground v.1.15,2013-02-06 16:05:00,
2013-02-06 11:15:00,31.9,24.2,29.93,SW,218,0.0,1.0,73,0.00,,,0.00,Wunderground v.1.15,2013-02-06 16:15:00,
2013-02-06 11:20:00,32.3,24.3,29.93,SSE,158,0.0,1.0,72,0.00,,,0.00,Wunderground v.1.15,2013-02-06 16:20:00,
2013-02-06 11:25:00,32.8,24.8,29.93,SW,229,0.0,1.0,72,0.00,,,0.00,Wunderground v.1.15,2013-02-06 16:25:00,
2013-02-06 11:30:00,33.5,25.4,29.93,North,358,0.0,0.0,72,0.00,,,0.00,Wunderground v.1.15,2013-02-06 16:30:00,
2013-02-06 11:35:00,33.7,25.6,29.92,West,270,0.0,0.0,72,0.00,,,0.00,Wunderground v.1.15,2013-02-06 16:35:00,
2013-02-06 11:45:00,33.9,25.8,29.92,SW,219,0.0,2.0,72,0.00,,,0.00,Wunderground v.1.15,2013-02-06 16:45:00,
2013-02-06 11:50:00,34.0,25.6,29.92,SW,229,1.0,1.0,71,0.00,,,0.00,Wunderground v.1.15,2013-02-06 16:50:00,
2013-02-06 11:55:00,34.3,25.9,29.92,SW,232,1.0,8.0,71,0.00,,,0.00,Wunderground v.1.15,2013-02-06 16:55:00,
2013-02-06 12:00:00,34.7,26.3,29.92,SSE,148,1.0,1.0,71,0.00,,,0.00,Wunderground v.1.15,2013-02-06 17:00:00,
2013-02-06 12:05:00,34.6,25.5,29.92,SSE,158,1.0,4.0,69,0.00,,,0.00,Wunderground v.1.15,2013-02-06 17:05:00,
2013-02-06 12:10:00,34.6,25.8,29.91,SSW,200,1.0,2.0,70,0.00,,,0.00,Wunderground v.1.15,2013-02-06 17:10:00,
2013-02-06 12:20:00,35.5,25.6,29.91,SSW,207,1.0,3.0,67,0.00,,,0.00,Wunderground v.1.15,2013-02-06 17:20:00,
2013-02-06 12:25:00,35.5,25.3,29.91,South,190,1.0,3.0,66,0.00,,,0.00,Wunderground v.1.15,2013-02-06 17:25:00,
2013-02-06 12:30:00,35.6,25.7,29.91,NW,314,1.0,1.0,67,0.00,,,0.00,Wunderground v.1.15,2013-02-06 17:30:00,
2013-02-06 12:35:00,35.4,25.2,29.91,WSW,253,2.0,2.0,66,0.00,,,0.00,Wunderground v.1.15,2013-02-06 17:35:00,
2013-02-06 12:40:00,35.3,25.1,29.91,NW,324,3.0,3.0,66,0.00,,,0.00,Wunderground v.1.15,2013-02-06 17:40:00,
2013-02-06 12:45:00,35.3,25.1,29.90,SSW,208,2.0,3.0,66,0.00,,,0.00,Wunderground v.1.15,2013-02-06 17:45:00,
2013-02-06 12:55:00,35.9,25.3,29.90,SSW,200,1.0,4.0,65,0.00,,,0.00,Wunderground v.1.15,2013-02-06 17:55:00,
2013-02-06 13:00:00,35.6,25.7,29.91,SSW,193,2.0,3.0,67,0.00,,,0.00,Wunderground v.1.15,2013-02-06 18:00:00,
2013-02-06 13:05:00,35.6,25.7,29.90,WSW,251,2.0,8.0,67,0.00,,,0.00,Wunderground v.1.15,2013-02-06 18:05:00,
2013-02-06 13:10:00,35.5,26.3,29.90,WSW,252,2.0,2.0,69,0.00,,,0.00,Wunderground v.1.15,2013-02-06 18:10:00,
2013-02-06 13:15:00,35.3,26.5,29.91,SW,229,2.0,8.0,70,0.00,,,0.00,Wunderground v.1.15,2013-02-06 18:15:00,
2013-02-06 13:25:00,36.2,25.9,29.90,SSE,168,2.0,8.0,66,0.00,,,0.00,Wunderground v.1.15,2013-02-06 18:25:00,
2013-02-06 13:30:00,36.3,26.4,29.90,SSW,198,2.0,3.0,67,0.00,,,0.00,Wunderground v.1.15,2013-02-06 18:30:00,
2013-02-06 13:35:00,36.1,26.6,29.91,SE,135,3.0,3.0,68,0.00,,,0.00,Wunderground v.1.15,2013-02-06 18:35:00,
2013-02-06 13:40:00,36.3,26.4,29.91,SW,229,3.0,3.0,67,0.00,,,0.00,Wunderground v.1.15,2013-02-06 18:40:00,
2013-02-06 13:45:00,36.5,26.2,29.90,WNW,297,2.0,3.0,66,0.00,,,0.00,Wunderground v.1.15,2013-02-06 18:45:00,
2013-02-06 13:50:00,36.8,26.9,29.91,North,354,2.0,2.0,67,0.00,,,0.00,Wunderground v.1.15,2013-02-06 18:50:00,
2013-02-06 14:00:00,37.2,26.1,29.91,SSW,205,1.0,1.0,64,0.00,,,0.00,Wunderground v.1.15,2013-02-06 19:00:00,
2013-02-06 14:05:00,37.3,25.1,29.91,SSW,195,1.0,10.0,61,0.00,,,0.00,Wunderground v.1.15,2013-02-06 19:05:00,
2013-02-06 14:10:00,37.5,24.9,29.91,NNW,346,1.0,1.0,60,0.00,,,0.00,Wunderground v.1.15,2013-02-06 19:10:00,
2013-02-06 14:15:00,37.7,24.6,29.91,South,190,1.0,10.0,59,0.00,,,0.00,Wunderground v.1.15,2013-02-06 19:15:00,
2013-02-06 14:20:00,37.9,25.2,29.92,SE,138,1.0,1.0,60,0.00,,,0.00,Wunderground v.1.15,2013-02-06 19:20:00,
2013-02-06 14:30:00,36.5,23.9,29.92,SSW,193,0.0,1.0,60,0.00,,,0.00,Wunderground v.1.15,2013-02-06 19:30:00,
2013-02-06 14:35:00,36.1,24.3,29.92,SW,225,1.0,1.0,62,0.00,,,0.00,Wunderground v.1.15,2013-02-06 19:35:00,
2013-02-06 14:40:00,36.0,24.6,29.92,SSW,207,1.0,1.0,63,0.00,,,0.00,Wunderground v.1.15,2013-02-06 19:40:00,
2013-02-06 14:45:00,36.4,25.0,29.92,SSW,198,1.0,1.0,63,0.00,,,0.00,Wunderground v.1.15,2013-02-06 19:45:00,
2013-02-06 14:50:00,36.6,24.0,29.91,WSW,253,1.0,1.0,60,0.00,,,0.00,Wunderground v.1.15,2013-02-06 19:50:00,
2013-02-06 14:55:00,36.6,21.5,29.91,SW,227,1.0,1.0,54,0.00,,,0.00,Wunderground v.1.15,2013-02-06 19:55:00,
2013-02-06 15:05:00,36.6,20.6,29.92,ENE,64,2.0,7.0,52,0.00,,,0.00,Wunderground v.1.15,2013-02-06 20:05:00,
2013-02-06 15:10:00,36.7,20.3,29.92,SSE,148,2.0,2.0,51,0.00,,,0.00,Wunderground v.1.15,2013-02-06 20:10:00,
2013-02-06 15:15:00,36.3,20.3,29.92,SE,125,2.0,7.0,52,0.00,,,0.00,Wunderground v.1.15,2013-02-06 20:15:00,
2013-02-06 15:20:00,35.9,21.3,29.92,SE,141,1.0,7.0,55,0.00,,,0.00,Wunderground v.1.15,2013-02-06 20:20:00,
2013-02-06 15:30:00,35.5,21.8,29.93,WSW,252,1.0,1.0,57,0.00,,,0.00,Wunderground v.1.15,2013-02-06 20:30:00,
2013-02-06 15:35:00,35.5,21.8,29.93,North,353,1.0,1.0,57,0.00,,,0.00,Wunderground v.1.15,2013-02-06 20:35:00,
2013-02-06 15:40:00,35.1,22.2,29.93,WSW,249,1.0,1.0,59,0.00,,,0.00,Wunderground v.1.15,2013-02-06 20:40:00,
2013-02-06 15:45:00,34.7,22.2,29.94,ESE,114,0.0,1.0,60,0.00,,,0.00,Wunderground v.1.15,2013-02-06 20:45:00,
2013-02-06 15:50:00,34.4,22.3,29.94,SSE,161,0.0,0.0,61,0.00,,,0.00,Wunderground v.1.15,2013-02-06 20:50:00,
2013-02-06 15:55:00,34.3,22.2,29.94,SE,125,0.0,0.0,61,0.00,,,0.00,Wunderground v.1.15,2013-02-06 20:55:00,
2013-02-06 16:00:00,34.2,22.1,29.95,SW,221,0.0,0.0,61,0.00,,,0.00,Wunderground v.1.15,2013-02-06 21:00:00,
2013-02-06 16:10:00,34.4,23.1,29.95,SE,128,0.0,8.0,63,0.00,,,0.00,Wunderground v.1.15,2013-02-06 21:10:00,
2013-02-06 16:15:00,34.5,22.4,29.95,South,181,0.0,8.0,61,0.00,,,0.00,Wunderground v.1.15,2013-02-06 21:15:00,
2013-02-06 16:20:00,34.5,22.4,29.95,SSW,210,0.0,8.0,61,0.00,,,0.00,Wunderground v.1.15,2013-02-06 21:20:00,
2013-02-06 16:30:00,34.1,22.0,29.96,SSW,194,0.0,1.0,61,0.00,,,0.00,Wunderground v.1.15,2013-02-06 21:30:00,
2013-02-06 16:35:00,33.8,22.1,29.96,West,280,0.0,1.0,62,0.00,,,0.00,Wunderground v.1.15,2013-02-06 21:35:00,
2013-02-06 16:40:00,33.5,21.9,29.97,South,186,0.0,0.0,62,0.00,,,0.00,Wunderground v.1.15,2013-02-06 21:40:00,
2013-02-06 16:45:00,33.4,21.4,29.97,South,186,0.0,0.0,61,0.00,,,0.00,Wunderground v.1.15,2013-02-06 21:45:00,
2013-02-06 16:50:00,33.3,21.7,29.97,SSW,200,0.0,0.0,62,0.00,,,0.00,Wunderground v.1.15,2013-02-06 21:50:00,
2013-02-06 16:55:00,33.1,21.9,29.98,SSE,165,0.0,0.0,63,0.00,,,0.00,Wunderground v.1.15,2013-02-06 21:55:00,
2013-02-06 17:00:00,32.9,21.3,29.98,SE,131,0.0,0.0,62,0.00,,,0.00,Wunderground v.1.15,2013-02-06 22:00:00,
2013-02-06 17:05:00,32.7,21.1,29.98,NE,37,0.0,6.0,62,0.00,,,0.00,Wunderground v.1.15,2013-02-06 22:05:00,
2013-02-06 17:15:00,32.4,21.6,29.99,West,274,0.0,6.0,64,0.00,,,0.00,Wunderground v.1.15,2013-02-06 22:15:00,
2013-02-06 17:20:00,32.1,21.7,29.99,East,94,0.0,6.0,65,0.00,,,0.00,Wunderground v.1.15,2013-02-06 22:20:00,
2013-02-06 17:30:00,31.8,21.4,30.00,WNW,293,0.0,0.0,65,0.00,,,0.00,Wunderground v.1.15,2013-02-06 22:30:00,
2013-02-06 17:35:00,31.6,21.5,30.00,North,5,0.0,0.0,66,0.00,,,0.00,Wunderground v.1.15,2013-02-06 22:35:00,
2013-02-06 17:40:00,31.5,21.4,30.01,SE,139,0.0,0.0,66,0.00,,,0.00,Wunderground v.1.15,2013-02-06 22:40:00,
2013-02-06 17:50:00,31.4,21.3,30.02,East,90,0.0,1.0,66,0.00,,,0.00,Wunderground v.1.15,2013-02-06 22:50:00,
2013-02-06 17:55:00,31.2,20.8,30.02,NNE,27,1.0,1.0,65,0.00,,,0.00,Wunderground v.1.15,2013-02-06 22:55:00,
2013-02-06 18:00:00,31.2,20.4,30.03,NNE,30,1.0,1.0,64,0.00,,,0.00,Wunderground v.1.15,2013-02-06 23:00:00,
2013-02-06 18:05:00,31.1,19.2,30.04,NNW,333,1.0,4.0,61,0.00,,,0.00,Wunderground v.1.15,2013-02-06 23:05:00,
2013-02-06 18:10:00,31.0,19.1,30.04,North,11,1.0,1.0,61,0.00,,,0.00,Wunderground v.1.15,2013-02-06 23:10:00,
2013-02-06 18:20:00,30.7,17.7,30.05,NNE,13,1.0,1.0,58,0.00,,,0.00,Wunderground v.1.15,2013-02-06 23:20:00,
2013-02-06 18:25:00,30.5,17.1,30.05,East,92,1.0,1.0,57,0.00,,,0.00,Wunderground v.1.15,2013-02-06 23:25:00,
2013-02-06 18:30:00,30.4,16.6,30.05,NE,41,1.0,1.0,56,0.00,,,0.00,Wunderground v.1.15,2013-02-06 23:30:00,
2013-02-06 18:35:00,30.2,16.4,30.06,NNW,334,0.0,1.0,56,0.00,,,0.00,Wunderground v.1.15,2013-02-06 23:35:00,
2013-02-06 18:40:00,30.0,17.0,30.06,South,184,0.0,0.0,58,0.00,,,0.00,Wunderground v.1.15,2013-02-06 23:40:00,
2013-02-06 18:45:00,29.9,15.7,30.06,North,352,1.0,1.0,55,0.00,,,0.00,Wunderground v.1.15,2013-02-06 23:45:00,
2013-02-06 18:55:00,29.6,15.8,30.07,SE,126,0.0,1.0,56,0.00,,,0.00,Wunderground v.1.15,2013-02-06 23:55:00,
2013-02-06 19:00:00,29.5,14.9,30.07,SW,225,1.0,4.0,54,0.00,,,0.00,Wunderground v.1.15,2013-02-07 00:00:00,
2013-02-06 19:05:00,29.4,14.8,30.07,SSE,148,1.0,5.0,54,0.00,,,0.00,Wunderground v.1.15,2013-02-07 00:05:00,
2013-02-06 19:10:00,29.2,13.7,30.08,SE,124,1.0,5.0,52,0.00,,,0.00,Wunderground v.1.15,2013-02-07 00:10:00,
2013-02-06 19:15:00,28.9,12.6,30.08,NNW,340,2.0,5.0,50,0.00,,,0.00,Wunderground v.1.15,2013-02-07 00:15:00,
2013-02-06 19:20:00,28.6,11.4,30.08,NNW,333,2.0,5.0,48,0.00,,,0.00,Wunderground v.1.15,2013-02-07 00:20:00,
2013-02-06 19:30:00,28.3,11.1,30.09,NNW,338,2.0,2.0,48,0.00,,,0.00,Wunderground v.1.15,2013-02-07 00:30:00,
2013-02-06 19:35:00,28.1,10.9,30.10,ENE,65,2.0,2.0,48,0.00,,,0.00,Wunderground v.1.15,2013-02-07 00:35:00,
2013-02-06 19:40:00,28.0,11.3,30.10,NNW,336,2.0,2.0,49,0.00,,,0.00,Wunderground v.1.15,2013-02-07 00:40:00,
2013-02-06 19:45:00,27.8,11.1,30.10,NNE,15,1.0,2.0,49,0.00,,,0.00,Wunderground v.1.15,2013-02-07 00:45:00,
2013-02-06 19:50:00,27.6,10.4,30.10,NNE,33,1.0,2.0,48,0.00,,,0.00,Wunderground v.1.15,2013-02-07 00:50:00,
2013-02-06 20:00:00,27.3,10.6,30.11,SSW,198,1.0,1.0,49,0.00,,,0.00,Wunderground v.1.15,2013-02-07 01:00:00,
2013-02-06 20:05:00,27.2,11.0,30.11,SSE,153,1.0,5.0,50,0.00,,,0.00,Wunderground v.1.15,2013-02-07 01:05:00,
2013-02-06 20:10:00,27.1,11.8,30.12,NE,49,0.0,5.0,52,0.00,,,0.00,Wunderground v.1.15,2013-02-07 01:10:00,
2013-02-06 20:15:00,26.9,11.2,30.12,ENE,77,0.0,5.0,51,0.00,,,0.00,Wunderground v.1.15,2013-02-07 01:15:00,
2013-02-06 20:20:00,26.8,11.9,30.13,WNW,285,0.0,5.0,53,0.00,,,0.00,Wunderground v.1.15,2013-02-07 01:20:00,
2013-02-06 20:25:00,26.7,11.4,30.13,East,93,0.0,5.0,52,0.00,,,0.00,Wunderground v.1.15,2013-02-07 01:25:00,
2013-02-06 20:30:00,26.4,10.3,30.13,NNE,29,0.0,1.0,50,0.00,,,0.00,Wunderground v.1.15,2013-02-07 01:30:00,
2013-02-06 20:35:00,26.2,9.6,30.14,NNE,26,0.0,4.0,49,0.00,,,0.00,Wunderground v.1.15,2013-02-07 01:35:00,
2013-02-06 20:40:00,26.0,8.0,30.14,NE,53,1.0,1.0,46,0.00,,,0.00,Wunderground v.1.15,2013-02-07 01:40:00,
2013-02-06 20:45:00,25.8,6.9,30.14,NE,41,2.0,2.0,44,0.00,,,0.00,Wunderground v.1.15,2013-02-07 01:45:00,
2013-02-06 20:50:00,25.6,6.2,30.14,North,6,1.0,1.0,43,0.00,,,0.00,Wunderground v.1.15,2013-02-07 01:50:00,
2013-02-06 20:55:00,25.4,4.4,30.15,NE,55,1.0,1.0,40,0.00,,,0.00,Wunderground v.1.15,2013-02-07 01:55:00,
2013-02-06 21:05:00,25.1,4.7,30.15,SSE,155,1.0,9.0,41,0.00,,,0.00,Wunderground v.1.15,2013-02-07 02:05:00,
2013-02-06 21:10:00,24.9,5.0,30.16,ENE,60,1.0,1.0,42,0.00,,,0.00,Wunderground v.1.15,2013-02-07 02:10:00,
2013-02-06 21:15:00,24.9,5.0,30.16,SSE,153,0.0,2.0,42,0.00,,,0.00,Wunderground v.1.15,2013-02-07 02:15:00,
2013-02-06 21:20:00,24.7,3.8,30.16,South,172,1.0,9.0,40,0.00,,,0.00,Wunderground v.1.15,2013-02-07 02:20:00,
2013-02-06 21:25:00,24.5,4.6,30.17,SW,235,1.0,9.0,42,0.00,,,0.00,Wunderground v.1.15,2013-02-07 02:25:00,
2013-02-06 21:35:00,24.3,3.4,30.17,NNE,32,1.0,1.0,40,0.00,,,0.00,Wunderground v.1.15,2013-02-07 02:35:00,
2013-02-06 21:40:00,24.1,2.7,30.17,West,281,1.0,7.0,39,0.00,,,0.00,Wunderground v.1.15,2013-02-07 02:40:00,
2013-02-06 21:45:00,23.8,1.8,30.18,NNW,330,1.0,7.0,38,0.00,,,0.00,Wunderground v.1.15,2013-02-07 02:45:00,
2013-02-06 21:50:00,23.7,3.4,30.18,North,349,1.0,1.0,41,0.00,,,0.00,Wunderground v.1.15,2013-02-07 02:50:00,
2013-02-06 21:55:00,23.6,2.8,30.17,NNE,33,1.0,1.0,40,0.00,,,0.00,Wunderground v.1.15,2013-02-07 02:55:00,
2013-02-06 22:00:00,23.4,0.9,30.17,ESE,116,1.0,1.0,37,0.00,,,0.00,Wunderground v.1.15,2013-02-07 03:00:00,
2013-02-06 22:10:00,23.0,1.1,30.18,NNE,22,1.0,6.0,38,0.00,,,0.00,Wunderground v.1.15,2013-02-07 03:10:00,
2013-02-06 22:15:00,22.9,1.0,30.18,SSW,211,1.0,6.0,38,0.00,,,0.00,Wunderground v.1.15,2013-02-07 03:15:00,
2013-02-06 22:20:00,22.7,-0.9,30.19,North,11,1.0,1.0,35,0.00,,,0.00,Wunderground v.1.15,2013-02-07 03:20:00,
2013-02-06 22:25:00,22.5,-1.1,30.19,SSE,165,1.0,1.0,35,0.00,,,0.00,Wunderground v.1.15,2013-02-07 03:25:00,
2013-02-06 22:30:00,22.3,-0.1,30.19,ENE,57,2.0,2.0,37,0.00,,,0.00,Wunderground v.1.15,2013-02-07 03:30:00,
2013-02-06 22:40:00,22.1,0.3,30.20,North,1,1.0,1.0,38,0.00,,,0.00,Wunderground v.1.15,2013-02-07 03:40:00,
2013-02-06 22:45:00,22.0,0.8,30.20,NW,316,1.0,1.0,39,0.00,,,0.00,Wunderground v.1.15,2013-02-07 03:45:00,
2013-02-06 22:50:00,21.8,0.0,30.20,NW,325,1.0,1.0,38,0.00,,,0.00,Wunderground v.1.15,2013-02-07 03:50:00,
2013-02-06 22:55:00,21.6,1.0,30.20,ESE,122,1.0,1.0,40,0.00,,,0.00,Wunderground v.1.15,2013-02-07 03:55:00,
2013-02-06 23:00:00,21.5,0.9,30.20,North,5,1.0,1.0,40,0.00,,,0.00,Wunderground v.1.15,2013-02-07 04:00:00,
2013-02-06 23:05:00,21.3,0.1,30.21,North,11,1.0,2.0,39,0.00,,,0.00,Wunderground v.1.15,2013-02-07 04:05:00,
2013-02-06 23:15:00,20.8,-0.9,30.22,NNW,335,1.0,8.0,38,0.00,,,0.00,Wunderground v.1.15,2013-02-07 04:15:00,
2013-02-06 23:20:00,20.6,-0.5,30.23,NE,43,1.0,8.0,39,0.00,,,0.00,Wunderground v.1.15,2013-02-07 04:20:00,
2013-02-06 23:25:00,20.4,-1.2,30.23,NNE,30,1.0,8.0,38,0.00,,,0.00,Wunderground v.1.15,2013-02-07 04:25:00,
2013-02-06 23:30:00,20.0,-1.0,30.24,NNE,25,1.0,1.0,39,0.00,,,0.00,Wunderground v.1.15,2013-02-07 04:30:00,
2013-02-06 23:35:00,19.6,-1.4,30.24,NE,50,1.0,1.0,39,0.00,,,0.00,Wunderground v.1.15,2013-02-07 04:35:00,
2013-02-06 23:45:00,18.9,-1.5,30.25,North,4,1.0,1.0,40,0.00,,,0.00,Wunderground v.1.15,2013-02-07 04:45:00,
2013-02-06 23:50:00,18.7,-1.1,30.25,North,352,0.0,0.0,41,0.00,,,0.00,Wunderground v.1.15,2013-02-07 04:50:00,
2013-02-06 23:55:00,18.3,-1.5,30.25,NE,34,1.0,1.0,41,0.00,,,0.00,Wunderground v.1.15,2013-02-07 04:55:00,